createdAt,value
2022-10-22T00:00:00.656Z,12.34
2022-10-22T00:02:28.345Z,12.30
2022-10-22T00:04:57.321Z,12.25
2022-10-22T00:07:25.488Z,12.29
2022-10-22T00:09:53.005Z,12.35
2022-10-22T00:12:20.598Z,12.30
2022-10-22T00:14:49.278Z,12.34
2022-10-22T00:17:16.841Z,12.41
2022-10-22T00:19:44.292Z,12.43
2022-10-22T00:22:13.424Z,12.55
2022-10-22T00:24:41.463Z,12.43
2022-10-22T00:27:11.532Z,12.37
2022-10-22T00:29:39.010Z,12.15
2022-10-22T00:32:08.234Z,12.08
2022-10-22T00:34:36.082Z,11.98
2022-10-22T00:37:03.811Z,12.01
2022-10-22T00:39:33.064Z,11.91
2022-10-22T00:42:01.732Z,11.83
2022-10-22T00:45:15.206Z,11.71
2022-10-22T00:47:45.955Z,11.77
2022-10-22T00:50:16.863Z,11.71
2022-10-22T00:52:44.411Z,11.74
2022-10-22T00:55:15.066Z,11.79
2022-10-22T00:57:43.570Z,11.84
2022-10-22T01:00:12.076Z,11.84
2022-10-22T01:02:40.053Z,12.02
2022-10-22T01:05:08.614Z,12.06
2022-10-22T01:07:40.449Z,11.95
2022-10-22T01:10:14.364Z,12.03
2022-10-22T01:12:52.777Z,11.99
2022-10-22T01:15:30.527Z,11.97
2022-10-22T01:18:06.973Z,12.01
2022-10-22T01:20:59.580Z,11.90
2022-10-22T01:23:50.116Z,11.73
2022-10-22T01:26:29.176Z,11.80
2022-10-22T01:29:06.173Z,11.94
2022-10-22T01:31:39.232Z,11.92
2022-10-22T01:34:07.843Z,11.80
2022-10-22T01:36:36.637Z,11.73
2022-10-22T01:39:06.399Z,11.76
2022-10-22T01:41:40.234Z,-139.23
2022-10-22T01:45:22.577Z,-139.23
2022-10-22T01:48:35.368Z,-139.23
2022-10-22T01:52:15.428Z,-139.23
2022-10-22T01:55:16.263Z,-139.23
2022-10-22T01:58:35.006Z,-139.23
2022-10-22T02:02:00.807Z,-139.23
2022-10-22T02:05:31.613Z,-139.23
2022-10-22T02:08:49.459Z,-139.23
2022-10-22T02:12:14.476Z,-139.23
2022-10-22T02:15:11.819Z,-139.23
2022-10-22T02:17:45.955Z,-139.23
2022-10-22T02:21:14.317Z,-139.23
2022-10-22T02:24:34.788Z,-139.23
2022-10-22T02:27:25.862Z,-139.23
2022-10-22T02:30:57.889Z,-139.23
2022-10-22T02:33:54.408Z,-139.23
2022-10-22T02:36:25.952Z,-139.23
2022-10-22T02:39:52.526Z,-139.23
2022-10-22T02:43:18.914Z,-139.23
2022-10-22T02:45:48.794Z,-139.23
2022-10-22T02:49:16.084Z,-139.23
2022-10-22T02:52:32.383Z,-139.23
2022-10-22T02:55:01.241Z,-139.23
2022-10-22T02:57:28.726Z,-139.23
2022-10-22T02:59:56.168Z,-139.23
2022-10-22T03:02:23.684Z,-139.23
2022-10-22T03:04:52.528Z,11.03
2022-10-22T03:07:19.987Z,10.88
2022-10-22T03:09:47.628Z,10.94
2022-10-22T03:12:15.210Z,11.19
2022-10-22T03:14:42.657Z,11.16
2022-10-22T03:17:10.220Z,11.22
2022-10-22T03:19:37.674Z,11.33
2022-10-22T03:22:10.977Z,11.42
2022-10-22T03:24:42.713Z,11.39
2022-10-22T03:27:11.829Z,11.39
2022-10-22T03:29:41.105Z,11.20
2022-10-22T03:32:08.606Z,11.22
2022-10-22T03:34:36.191Z,11.22
2022-10-22T03:37:03.871Z,11.19
2022-10-22T03:39:36.099Z,-139.23
2022-10-22T03:42:08.049Z,-139.23
2022-10-22T03:45:35.080Z,-139.23
2022-10-22T03:48:02.697Z,-139.23
2022-10-22T03:50:47.971Z,-139.23
2022-10-22T03:53:23.741Z,-139.23
2022-10-22T03:56:28.578Z,-139.23
2022-10-22T03:59:56.120Z,-139.23
2022-10-22T04:03:22.100Z,-139.23
2022-10-22T04:06:30.568Z,-139.23
2022-10-22T04:09:53.987Z,-139.23
2022-10-22T04:13:21.205Z,-139.23
2022-10-22T04:16:47.169Z,-139.23
2022-10-22T04:19:45.258Z,-139.23
2022-10-22T04:22:21.085Z,-139.23
2022-10-22T04:25:47.282Z,-139.23
2022-10-22T04:28:16.097Z,11.09
2022-10-22T04:30:43.505Z,11.10
2022-10-22T04:33:10.961Z,11.07
2022-10-22T04:35:39.835Z,11.11
2022-10-22T04:38:07.265Z,11.09
2022-10-22T04:40:34.696Z,11.03
2022-10-22T04:43:02.199Z,11.01
2022-10-22T04:45:31.008Z,10.81
2022-10-22T04:47:58.424Z,10.85
2022-10-22T04:50:25.882Z,10.77
2022-10-22T04:52:53.747Z,10.75
2022-10-22T04:55:21.285Z,10.61
2022-10-22T04:57:48.902Z,10.55
2022-10-22T05:00:17.128Z,10.57
2022-10-22T05:02:50.129Z,10.78
2022-10-22T05:05:17.871Z,10.83
2022-10-22T05:07:45.329Z,10.77
2022-10-22T05:10:12.856Z,10.78
2022-10-22T05:12:40.324Z,10.78
2022-10-22T05:15:09.283Z,10.73
2022-10-22T05:17:38.245Z,10.61
2022-10-22T05:20:08.932Z,10.59
2022-10-22T05:22:36.386Z,10.60
2022-10-22T05:25:03.879Z,10.53
2022-10-22T05:27:31.320Z,10.46
2022-10-22T05:29:58.740Z,10.46
2022-10-22T05:32:28.923Z,-139.23
2022-10-22T05:34:56.833Z,-139.23
2022-10-22T05:37:26.529Z,-139.23
2022-10-22T05:40:01.837Z,-139.23
2022-10-22T05:42:44.840Z,10.46
2022-10-22T05:45:56.900Z,-139.23
2022-10-22T05:48:55.146Z,-139.23
2022-10-22T05:51:24.230Z,-139.23
2022-10-22T05:54:12.894Z,-139.23
2022-10-22T05:57:30.541Z,-139.23
2022-10-22T05:59:57.966Z,10.15
2022-10-22T06:02:28.973Z,-139.23
2022-10-22T06:05:02.593Z,-139.23
2022-10-22T06:07:30.318Z,10.48
2022-10-22T06:10:00.266Z,10.50
2022-10-22T06:12:27.926Z,10.57
2022-10-22T06:14:56.837Z,-139.23
2022-10-22T06:17:31.879Z,-139.23
2022-10-22T06:19:59.595Z,10.71
2022-10-22T06:22:35.779Z,10.71
2022-10-22T06:25:04.933Z,10.60
2022-10-22T06:27:32.520Z,10.83
2022-10-22T06:30:21.373Z,-139.23
2022-10-22T06:33:04.787Z,-139.23
2022-10-22T06:35:56.076Z,-139.23
2022-10-22T06:38:36.399Z,-139.23
2022-10-22T06:41:33.793Z,-139.23
2022-10-22T06:44:23.256Z,-139.23
2022-10-22T06:47:39.475Z,-139.23
2022-10-22T06:50:39.235Z,-139.23
2022-10-22T06:53:56.609Z,-139.23
2022-10-22T06:57:23.556Z,-139.23
2022-10-22T06:59:51.049Z,11.30
2022-10-22T07:03:17.086Z,-139.23
2022-10-22T07:06:43.123Z,-139.23
2022-10-22T07:10:09.673Z,-139.23
2022-10-22T07:13:37.124Z,-139.23
2022-10-22T07:17:03.580Z,-139.23
2022-10-22T07:20:29.534Z,-139.23
2022-10-22T07:23:55.532Z,-139.23
2022-10-22T07:27:21.667Z,-139.23
2022-10-22T07:30:48.958Z,-139.23
2022-10-22T07:34:15.342Z,-139.23
2022-10-22T07:37:41.897Z,-139.23
2022-10-22T07:41:08.946Z,-139.23
2022-10-22T07:44:34.910Z,-139.23
2022-10-22T07:47:29.203Z,-139.23
2022-10-22T07:50:55.201Z,-139.23
2022-10-22T07:54:21.344Z,-139.23
2022-10-22T07:57:47.501Z,-139.23
2022-10-22T08:01:09.835Z,-139.23
2022-10-22T08:04:37.335Z,-139.23
2022-10-22T08:08:03.995Z,-139.23
2022-10-22T08:11:27.734Z,-139.23
2022-10-22T08:14:29.324Z,-139.23
2022-10-22T08:17:55.295Z,-139.23
2022-10-22T08:21:11.626Z,-139.23
2022-10-22T08:24:37.733Z,-139.23
2022-10-22T08:27:53.951Z,-139.23
2022-10-22T08:31:07.279Z,-139.23
2022-10-22T08:34:19.163Z,-139.23
2022-10-22T08:37:28.531Z,-139.23
2022-10-22T08:40:57.087Z,-139.23
2022-10-22T08:44:47.908Z,-139.23
2022-10-22T08:48:28.963Z,-139.23
2022-10-22T08:52:00.711Z,-139.23
2022-10-22T08:54:48.441Z,-139.23
2022-10-22T08:58:35.224Z,-139.23
2022-10-22T09:02:03.952Z,-139.23
2022-10-22T09:05:35.884Z,-139.23
2022-10-22T09:09:10.666Z,-139.23
2022-10-22T09:11:41.900Z,17.98
2022-10-22T09:15:13.426Z,-139.23
2022-10-22T09:18:24.833Z,-139.23
2022-10-22T09:21:54.923Z,-139.23
2022-10-22T09:25:13.495Z,17.98
2022-10-22T09:28:39.480Z,-139.23
2022-10-22T09:32:09.368Z,-139.23
2022-10-22T09:35:34.157Z,-139.23
2022-10-22T09:38:08.719Z,-139.23
2022-10-22T09:41:05.163Z,-139.23
2022-10-22T09:44:24.661Z,-139.23
2022-10-22T09:47:06.375Z,-139.23
2022-10-22T09:50:05.053Z,-139.23
2022-10-22T09:52:40.857Z,-139.23
2022-10-22T09:55:15.142Z,21.00
2022-10-22T09:57:44.607Z,21.81
2022-10-22T10:00:19.389Z,22.64
2022-10-22T10:02:46.918Z,23.43
2022-10-22T10:05:20.921Z,23.75
2022-10-22T10:07:48.412Z,23.59
2022-10-22T10:10:22.153Z,23.81
2022-10-22T10:13:02.564Z,23.74
2022-10-22T10:15:39.196Z,23.18
2022-10-22T10:18:19.443Z,22.70
2022-10-22T10:20:55.636Z,22.38
2022-10-22T10:23:32.624Z,21.27
2022-10-22T10:26:07.985Z,21.11
2022-10-22T10:28:55.958Z,19.96
2022-10-22T10:31:36.331Z,19.45
2022-10-22T10:34:15.107Z,19.04
2022-10-22T10:36:52.740Z,19.37
2022-10-22T10:39:27.827Z,20.14
2022-10-22T10:42:04.880Z,20.25
2022-10-22T10:44:47.277Z,20.03
2022-10-22T10:47:27.597Z,20.38
2022-10-22T10:50:02.957Z,21.08
2022-10-22T10:52:41.550Z,22.40
2022-10-22T10:55:19.765Z,22.96
2022-10-22T10:57:53.987Z,22.81
2022-10-22T11:00:23.607Z,24.01
2022-10-22T11:03:23.324Z,24.85
2022-10-22T11:05:55.045Z,25.35
2022-10-22T11:08:25.778Z,23.70
2022-10-22T11:10:58.897Z,23.39
2022-10-22T11:13:32.380Z,23.45
2022-10-22T11:16:07.560Z,22.74
2022-10-22T11:18:39.767Z,22.16
2022-10-22T11:21:24.263Z,20.93
2022-10-22T11:23:56.719Z,20.84
2022-10-22T11:26:38.100Z,21.55
2022-10-22T11:29:11.871Z,22.51
2022-10-22T11:31:41.817Z,22.98
2022-10-22T11:34:33.149Z,23.15
2022-10-22T11:37:02.419Z,21.57
2022-10-22T11:39:32.974Z,19.12
2022-10-22T11:42:02.964Z,18.59
2022-10-22T11:44:32.403Z,18.67
2022-10-22T11:47:16.515Z,19.34
2022-10-22T11:49:46.477Z,20.76
2022-10-22T11:52:26.846Z,20.85
2022-10-22T11:54:58.767Z,20.59
2022-10-22T11:57:38.163Z,19.92
2022-10-22T12:00:11.637Z,19.72
2022-10-22T12:02:45.290Z,19.81
2022-10-22T12:05:43.706Z,21.59
2022-10-22T12:08:22.418Z,23.17
2022-10-22T12:10:58.339Z,22.55
2022-10-22T12:13:29.137Z,21.40
2022-10-22T12:16:00.014Z,20.87
2022-10-22T12:18:37.738Z,21.35
2022-10-22T12:21:06.047Z,21.70
2022-10-22T12:23:36.196Z,21.22
2022-10-22T12:26:06.299Z,20.95
2022-10-22T12:28:40.621Z,20.26
2022-10-22T12:31:16.532Z,19.98
2022-10-22T12:33:45.422Z,19.81
2022-10-22T12:36:17.940Z,19.57
2022-10-22T12:38:48.081Z,18.49
2022-10-22T12:41:15.663Z,17.80
2022-10-22T12:43:43.581Z,17.49
2022-10-22T12:46:13.665Z,17.58
2022-10-22T12:48:43.506Z,17.92
2022-10-22T12:51:17.079Z,18.38
2022-10-22T12:53:47.745Z,18.69
2022-10-22T12:56:16.911Z,18.95
2022-10-22T12:58:47.167Z,19.55
2022-10-22T13:01:17.206Z,20.17
2022-10-22T13:03:47.403Z,20.47
2022-10-22T13:06:25.707Z,22.05
2022-10-22T13:09:03.210Z,22.30
2022-10-22T13:11:33.226Z,21.33
2022-10-22T13:14:03.191Z,19.49
2022-10-22T13:16:31.984Z,19.62
2022-10-22T13:18:59.604Z,18.85
2022-10-22T13:21:34.353Z,18.93
2022-10-22T13:24:03.639Z,19.48
2022-10-22T13:26:34.166Z,20.11
2022-10-22T13:29:03.680Z,19.94
2022-10-22T13:31:34.209Z,18.96
2022-10-22T13:34:09.722Z,18.55
2022-10-22T13:36:40.627Z,18.54
2022-10-22T13:39:16.924Z,18.53
2022-10-22T13:41:44.608Z,18.42
2022-10-22T13:44:12.111Z,18.48
2022-10-22T13:46:43.485Z,18.44
2022-10-22T13:49:15.861Z,18.71
2022-10-22T13:51:46.810Z,18.60
2022-10-22T13:54:17.635Z,18.76
2022-10-22T13:56:45.081Z,18.41
2022-10-22T13:59:12.797Z,18.72
2022-10-22T14:01:40.572Z,18.82
2022-10-22T14:04:11.756Z,18.97
2022-10-22T14:06:39.514Z,18.97
2022-10-22T14:09:14.368Z,19.79
2022-10-22T14:11:42.031Z,19.62
2022-10-22T14:14:10.980Z,18.82
2022-10-22T14:16:38.657Z,18.77
2022-10-22T14:19:11.016Z,18.87
2022-10-22T14:21:38.753Z,18.72
2022-10-22T14:24:09.547Z,18.68
2022-10-22T14:26:39.871Z,18.67
2022-10-22T14:29:10.338Z,18.76
2022-10-22T14:34:08.050Z,18.82
2022-10-22T14:36:35.525Z,18.50
2022-10-22T14:39:03.155Z,18.44
2022-10-22T14:41:32.073Z,18.24
2022-10-22T14:44:00.035Z,18.12
2022-10-22T14:46:27.587Z,18.05
2022-10-22T14:48:55.046Z,18.02
2022-10-22T14:51:23.270Z,17.91
2022-10-22T14:53:51.152Z,17.84
2022-10-22T14:56:21.857Z,17.81
2022-10-22T14:58:50.919Z,18.01
2022-10-22T15:01:18.648Z,17.99
2022-10-22T15:03:46.275Z,17.99
2022-10-22T15:06:13.706Z,17.92
2022-10-22T15:08:41.442Z,17.85
2022-10-22T15:11:11.499Z,17.81
2022-10-22T15:13:41.150Z,17.74
2022-10-22T15:16:12.327Z,17.62
2022-10-22T15:18:39.776Z,17.59
2022-10-22T15:21:09.805Z,17.54
2022-10-22T15:23:39.121Z,17.43
2022-10-22T15:26:08.630Z,17.40
2022-10-22T15:28:37.599Z,17.36
2022-10-22T15:31:06.164Z,17.33
2022-10-22T15:33:35.573Z,17.30
2022-10-22T15:36:12.633Z,17.23
2022-10-22T15:38:40.294Z,17.25
2022-10-22T15:41:09.992Z,17.24
2022-10-22T15:43:37.945Z,17.24
2022-10-22T15:46:14.408Z,17.20
2022-10-22T15:48:43.879Z,17.23
2022-10-22T15:51:13.063Z,17.23
2022-10-22T15:53:41.473Z,17.15
2022-10-22T15:56:11.550Z,17.07
2022-10-22T15:58:39.009Z,17.09
2022-10-22T16:01:07.364Z,17.04
2022-10-22T16:03:35.663Z,17.07
2022-10-22T16:06:05.603Z,17.03
2022-10-22T16:08:33.664Z,17.03
2022-10-22T16:11:01.140Z,17.08
2022-10-22T16:13:29.905Z,17.04
2022-10-22T16:15:57.693Z,17.00
2022-10-22T16:18:25.193Z,16.99
2022-10-22T16:20:52.641Z,16.97
2022-10-22T16:23:21.673Z,16.97
2022-10-22T16:25:49.309Z,16.95
2022-10-22T16:28:16.925Z,16.94
2022-10-22T16:30:44.376Z,16.91
2022-10-22T16:33:12.608Z,16.87
2022-10-22T16:35:43.167Z,16.80
2022-10-22T16:38:12.158Z,16.78
2022-10-22T16:40:42.050Z,16.81
2022-10-22T16:43:09.469Z,16.78
2022-10-22T16:45:37.036Z,16.79
2022-10-22T16:48:04.853Z,16.75
2022-10-22T16:50:32.286Z,16.64
2022-10-22T16:52:59.729Z,16.61
2022-10-22T16:55:27.147Z,16.56
2022-10-22T16:57:55.994Z,16.43
2022-10-22T17:00:23.651Z,16.44
2022-10-22T17:02:54.783Z,16.28
2022-10-22T17:05:22.938Z,16.24
2022-10-22T17:07:51.016Z,16.06
2022-10-22T17:10:20.218Z,15.85
2022-10-22T17:12:48.291Z,15.68
2022-10-22T17:15:17.346Z,15.44
2022-10-22T17:17:48.247Z,15.14
2022-10-22T17:20:15.769Z,14.65
2022-10-22T17:22:43.518Z,14.35
2022-10-22T17:25:14.573Z,14.06
2022-10-22T17:27:43.139Z,13.91
2022-10-22T17:30:15.515Z,13.70
2022-10-22T17:32:44.532Z,13.45
2022-10-22T17:35:12.958Z,13.28
2022-10-22T17:37:40.802Z,13.13
2022-10-22T17:40:09.671Z,13.03
2022-10-22T17:42:37.237Z,12.96
2022-10-22T17:45:05.192Z,12.83
2022-10-22T17:47:32.684Z,12.68
2022-10-22T17:50:01.443Z,12.65
2022-10-22T17:52:28.891Z,12.57
2022-10-22T17:54:56.355Z,12.44
2022-10-22T17:57:23.816Z,12.34
2022-10-22T17:59:51.307Z,12.37
2022-10-22T18:02:19.465Z,12.34
2022-10-22T18:04:47.132Z,12.44
2022-10-22T18:07:15.917Z,12.39
2022-10-22T18:09:43.884Z,12.43
2022-10-22T18:12:13.718Z,12.30
2022-10-22T18:14:41.422Z,12.45
2022-10-22T18:17:09.205Z,12.56
2022-10-22T18:19:36.936Z,12.37
2022-10-22T18:22:05.653Z,12.44
2022-10-22T18:24:36.685Z,12.44
2022-10-22T18:27:04.456Z,12.35
2022-10-22T18:29:31.931Z,12.36
2022-10-22T18:31:59.452Z,12.44
2022-10-22T18:34:26.941Z,12.62
2022-10-22T18:36:54.370Z,13.00
2022-10-22T18:39:21.906Z,13.11
2022-10-22T18:41:50.899Z,12.96
2022-10-22T18:44:18.764Z,12.76
2022-10-22T18:46:46.228Z,12.52
2022-10-22T18:49:18.944Z,12.34
2022-10-22T18:51:48.553Z,12.16
2022-10-22T18:54:23.184Z,11.91
2022-10-22T18:56:53.468Z,11.63
2022-10-22T18:59:22.652Z,11.24
2022-10-22T19:01:51.208Z,10.98
2022-10-22T19:04:18.705Z,10.80
2022-10-22T19:06:46.245Z,10.73
2022-10-22T19:09:14.677Z,10.86
2022-10-22T19:11:43.596Z,10.93
2022-10-22T19:14:13.830Z,10.75
2022-10-22T19:16:41.275Z,10.60
2022-10-22T19:19:08.849Z,10.75
2022-10-22T19:21:38.014Z,10.63
2022-10-22T19:24:05.973Z,10.47
2022-10-22T19:26:33.570Z,10.24
2022-10-22T19:29:01.550Z,10.19
2022-10-22T19:32:01.473Z,10.19
2022-10-22T19:34:28.969Z,10.33
2022-10-22T19:37:52.038Z,-139.23
2022-10-22T19:40:51.361Z,10.33
2022-10-22T19:43:19.085Z,10.34
2022-10-22T19:46:46.705Z,-139.23
2022-10-22T19:50:11.992Z,-139.23
2022-10-22T19:53:34.372Z,-139.23
2022-10-22T19:56:50.041Z,-139.23
2022-10-22T20:00:15.661Z,-139.23
2022-10-22T20:03:42.692Z,-139.23
2022-10-22T20:06:21.721Z,-139.23
2022-10-22T20:08:59.272Z,-139.23
2022-10-22T20:11:54.377Z,-139.23
2022-10-22T20:15:18.491Z,-139.23
2022-10-22T20:17:50.233Z,-139.23
2022-10-22T20:20:17.808Z,-139.23
2022-10-22T20:23:44.045Z,-139.23
2022-10-22T20:26:12.839Z,-139.23
2022-10-22T20:28:40.825Z,9.25
2022-10-22T20:32:10.176Z,-139.23
2022-10-22T20:35:37.700Z,-139.23
2022-10-22T20:39:06.133Z,-139.23
2022-10-22T20:42:20.307Z,-139.23
2022-10-22T20:45:10.528Z,-139.23
2022-10-22T20:47:50.904Z,9.40
2022-10-22T20:50:31.270Z,9.32
2022-10-22T20:52:58.887Z,9.06
2022-10-22T20:55:28.829Z,8.82
2022-10-22T20:57:56.598Z,8.82
2022-10-22T21:00:24.121Z,-139.23
2022-10-22T21:02:55.356Z,-139.23
2022-10-22T21:05:36.133Z,-139.23
2022-10-22T21:08:27.907Z,-139.23
2022-10-22T21:10:57.988Z,8.82
2022-10-22T21:13:26.280Z,-139.23
2022-10-22T21:16:07.756Z,-139.23
2022-10-22T21:18:35.786Z,-139.23
2022-10-22T21:21:06.526Z,-139.23
2022-10-22T21:24:28.926Z,-139.23
2022-10-22T21:26:58.512Z,9.01
2022-10-22T21:29:26.052Z,-139.23
2022-10-22T21:31:54.115Z,-139.23
2022-10-22T21:34:21.683Z,-139.23
2022-10-22T21:36:50.494Z,-139.23
2022-10-22T21:39:17.979Z,-139.23
2022-10-22T21:41:45.532Z,-139.23
2022-10-22T21:44:13.095Z,-139.23
2022-10-22T21:47:39.576Z,-139.23
2022-10-22T21:50:44.699Z,-139.23
2022-10-22T21:53:13.883Z,9.01
2022-10-22T21:55:44.192Z,-139.23
2022-10-22T21:58:14.676Z,9.01
2022-10-22T22:01:07.451Z,-139.23
2022-10-22T22:04:05.259Z,9.01
2022-10-22T22:06:33.829Z,-139.23
2022-10-22T22:09:07.795Z,-139.23
2022-10-22T22:11:35.451Z,-139.23
2022-10-22T22:14:02.917Z,-139.23
2022-10-22T22:17:11.539Z,-139.23
2022-10-22T22:20:28.331Z,-139.23
2022-10-22T22:23:07.940Z,-139.23
2022-10-22T22:26:35.286Z,-139.23
2022-10-22T22:29:42.911Z,-139.23
2022-10-22T22:32:14.035Z,-139.23
2022-10-22T22:34:41.506Z,-139.23
2022-10-22T22:37:08.960Z,8.90
2022-10-22T22:39:36.406Z,9.12
2022-10-22T22:42:05.385Z,9.23
2022-10-22T22:44:32.904Z,9.12
2022-10-22T22:47:00.446Z,9.14
2022-10-22T22:49:27.938Z,9.08
2022-10-22T22:51:55.413Z,8.88
2022-10-22T22:54:22.923Z,8.91
2022-10-22T22:56:51.451Z,9.16
2022-10-22T22:59:20.487Z,9.24
2022-10-22T23:01:49.255Z,9.36
2022-10-22T23:04:22.737Z,9.36
2022-10-22T23:06:51.327Z,9.04
2022-10-22T23:11:53.081Z,-139.23
2022-10-22T23:14:22.040Z,-139.23
2022-10-22T23:16:51.836Z,-139.23
2022-10-22T23:19:21.631Z,-139.23
2022-10-22T23:21:50.991Z,-139.23
2022-10-22T23:24:21.380Z,-139.23
2022-10-22T23:26:50.709Z,-139.23
2022-10-22T23:29:20.399Z,-139.23
2022-10-22T23:31:50.420Z,-139.23
2022-10-22T23:36:55.359Z,-139.23
2022-10-22T23:39:24.653Z,-139.23
2022-10-22T23:41:52.971Z,-139.23
2022-10-22T23:44:21.222Z,-139.23
2022-10-22T23:46:50.591Z,-139.23
2022-10-22T23:49:18.787Z,-139.23
2022-10-22T23:51:46.262Z,-139.23
2022-10-22T23:54:15.989Z,-139.23
2022-10-22T23:56:43.538Z,-139.23
